createdAt,value
2022-11-28T00:01:31.892Z,4.63
2022-11-28T00:04:01.235Z,4.75
2022-11-28T00:06:30.208Z,4.53
2022-11-28T00:09:00.130Z,4.80
2022-11-28T00:11:27.942Z,5.38
2022-11-28T00:13:55.829Z,4.93
2022-11-28T00:16:24.839Z,5.15
2022-11-28T00:18:53.976Z,5.20
2022-11-28T00:21:23.831Z,4.82
2022-11-28T00:23:52.225Z,5.40
2022-11-28T00:26:22.076Z,4.45
2022-11-28T00:28:50.059Z,5.80
2022-11-28T00:31:20.680Z,5.53
2022-11-28T00:33:48.626Z,5.55
2022-11-28T00:36:16.794Z,5.18
2022-11-28T00:38:46.299Z,5.13
2022-11-28T00:41:16.488Z,5.72
2022-11-28T00:43:45.877Z,5.10
2022-11-28T00:46:15.418Z,6.00
2022-11-28T00:48:43.348Z,5.22
2022-11-28T00:51:13.108Z,4.80
2022-11-28T00:53:42.506Z,5.43
2022-11-28T00:56:13.426Z,6.30
2022-11-28T00:58:41.891Z,4.82
2022-11-28T01:01:11.082Z,5.50
2022-11-28T01:03:39.624Z,4.88
2022-11-28T01:06:09.140Z,6.32
2022-11-28T01:08:37.785Z,6.20
2022-11-28T01:11:11.299Z,5.80
2022-11-28T01:13:40.800Z,5.20
2022-11-28T01:16:09.452Z,5.38
2022-11-28T01:18:38.189Z,5.70
2022-11-28T01:21:06.672Z,5.95
2022-11-28T01:23:34.662Z,5.88
2022-11-28T01:26:03.136Z,6.32
2022-11-28T01:28:30.948Z,5.40
2022-11-28T01:31:04.766Z,6.03
2022-11-28T01:33:32.782Z,6.32
2022-11-28T01:36:01.193Z,6.15
2022-11-28T01:38:29.509Z,5.88
2022-11-28T01:40:57.701Z,6.10
2022-11-28T01:43:25.959Z,6.78
2022-11-28T01:45:54.601Z,6.00
2022-11-28T01:48:27.502Z,6.00
2022-11-28T01:50:58.996Z,5.63
2022-11-28T01:53:30.032Z,5.47
2022-11-28T01:56:04.499Z,6.00
2022-11-28T01:58:35.412Z,6.50
2022-11-28T02:01:04.613Z,7.13
2022-11-28T02:03:41.721Z,6.85
2022-11-28T02:06:10.762Z,6.15
2022-11-28T02:08:38.528Z,6.32
2022-11-28T02:11:23.677Z,6.00
2022-11-28T02:14:00.125Z,5.55
2022-11-28T02:16:45.489Z,5.75
2022-11-28T02:19:43.100Z,6.10
2022-11-28T02:22:18.246Z,5.47
2022-11-28T02:24:58.119Z,5.93
2022-11-28T02:27:43.314Z,5.50
2022-11-28T02:30:18.334Z,5.88
2022-11-28T02:33:02.271Z,6.30
2022-11-28T02:35:36.840Z,5.07
2022-11-28T02:38:14.112Z,6.35
2022-11-28T02:40:50.939Z,6.00
2022-11-28T02:43:25.888Z,9.75
2022-11-28T02:45:59.419Z,6.93
2022-11-28T02:48:36.512Z,6.90
2022-11-28T02:51:11.278Z,7.03
2022-11-28T02:53:40.232Z,7.17
2022-11-28T02:56:11.188Z,6.45
2022-11-28T02:58:38.982Z,6.65
2022-11-28T03:01:08.550Z,6.85
2022-11-28T03:04:03.434Z,5.65
2022-11-28T03:06:42.447Z,5.38
2022-11-28T03:09:36.873Z,7.05
2022-11-28T03:12:16.850Z,6.40
2022-11-28T03:14:53.009Z,8.80
2022-11-28T03:17:28.655Z,9.13
2022-11-28T03:20:07.829Z,6.60
2022-11-28T03:22:42.933Z,6.07
2022-11-28T03:25:19.772Z,7.07
2022-11-28T03:27:53.666Z,6.18
2022-11-28T03:30:30.509Z,5.72
2022-11-28T03:33:01.777Z,6.85
2022-11-28T03:35:35.504Z,6.68
2022-11-28T03:38:07.951Z,6.78
2022-11-28T03:40:40.988Z,7.40
2022-11-28T03:43:12.356Z,6.20
2022-11-28T03:45:45.592Z,7.00
2022-11-28T03:48:18.849Z,6.55
2022-11-28T03:50:51.545Z,6.60
2022-11-28T03:53:26.002Z,6.93
2022-11-28T03:55:58.953Z,6.68
2022-11-28T03:58:32.056Z,6.05
2022-11-28T04:01:05.046Z,6.13
2022-11-28T04:03:42.117Z,7.05
2022-11-28T04:06:18.220Z,6.10
2022-11-28T04:08:50.848Z,7.13
2022-11-28T04:11:23.760Z,6.55
2022-11-28T04:13:55.932Z,6.55
2022-11-28T04:16:29.917Z,6.15
2022-11-28T04:19:02.342Z,6.95
2022-11-28T04:21:35.157Z,6.18
2022-11-28T04:24:07.294Z,6.75
2022-11-28T04:26:36.875Z,7.20
2022-11-28T04:29:09.029Z,6.57
2022-11-28T04:31:39.346Z,7.05
2022-11-28T04:34:10.631Z,6.80
2022-11-28T04:36:44.704Z,7.90
2022-11-28T04:39:17.635Z,7.55
2022-11-28T04:41:52.454Z,7.50
2022-11-28T04:44:26.661Z,7.10
2022-11-28T04:46:57.759Z,6.95
2022-11-28T04:49:28.135Z,7.25
2022-11-28T04:52:04.204Z,9.27
2022-11-28T04:57:10.776Z,10.38
2022-11-28T04:59:39.918Z,7.30
2022-11-28T05:02:08.247Z,6.82
2022-11-28T05:04:36.620Z,7.78
2022-11-28T05:07:08.352Z,11.43
2022-11-28T05:09:36.572Z,12.48
2022-11-28T05:12:05.210Z,10.13
2022-11-28T05:14:33.108Z,8.07
2022-11-28T05:17:00.955Z,9.02
2022-11-28T05:19:28.731Z,9.07
2022-11-28T05:21:56.468Z,8.50
2022-11-28T05:24:31.961Z,9.18
2022-11-28T05:29:27.690Z,11.88
2022-11-28T05:31:55.633Z,11.18
2022-11-28T05:34:23.403Z,8.25
2022-11-28T05:36:51.205Z,8.73
2022-11-28T05:39:18.954Z,8.35
2022-11-28T05:41:48.107Z,8.23
2022-11-28T05:44:15.930Z,8.18
2022-11-28T05:46:43.716Z,8.00
2022-11-28T05:49:11.485Z,8.02
2022-11-28T05:51:39.345Z,7.93
2022-11-28T05:54:07.828Z,7.45
2022-11-28T05:56:42.098Z,9.80
2022-11-28T05:59:11.619Z,7.85
2022-11-28T06:01:39.634Z,7.75
2022-11-28T06:04:07.537Z,7.03
2022-11-28T06:06:36.425Z,8.02
2022-11-28T06:09:06.009Z,8.73
2022-11-28T06:11:34.709Z,8.32
2022-11-28T06:14:03.318Z,8.57
2022-11-28T06:16:33.239Z,8.50
2022-11-28T06:19:03.295Z,7.95
2022-11-28T06:21:31.742Z,7.70
2022-11-28T06:24:00.660Z,8.07
2022-11-28T06:26:29.628Z,8.20
2022-11-28T06:28:57.504Z,8.18
2022-11-28T06:31:28.102Z,7.07
2022-11-28T06:33:58.072Z,8.00
2022-11-28T06:36:27.067Z,7.35
2022-11-28T06:38:54.844Z,8.18
2022-11-28T06:41:23.674Z,7.35
2022-11-28T06:43:51.631Z,9.70
2022-11-28T06:46:21.520Z,10.40
2022-11-28T06:48:51.215Z,6.60
2022-11-28T06:51:21.603Z,8.85
2022-11-28T06:53:49.732Z,9.85
2022-11-28T06:56:19.482Z,12.10
2022-11-28T06:58:48.118Z,9.73
2022-11-28T07:01:21.103Z,8.65
2022-11-28T07:03:49.451Z,8.38
2022-11-28T07:06:19.334Z,9.00
2022-11-28T07:08:49.056Z,7.15
2022-11-28T07:11:18.764Z,8.02
2022-11-28T07:13:46.855Z,7.55
2022-11-28T07:16:16.862Z,6.03
2022-11-28T07:18:45.395Z,8.52
2022-11-28T07:21:15.027Z,7.35
2022-11-28T07:23:43.486Z,6.78
2022-11-28T07:26:14.234Z,6.65
2022-11-28T07:28:43.047Z,8.48
2022-11-28T07:31:13.628Z,10.98
2022-11-28T07:33:43.134Z,22.63
2022-11-28T07:36:13.564Z,18.27
2022-11-28T07:38:41.529Z,9.77
2022-11-28T07:41:12.719Z,7.05
2022-11-28T07:43:40.913Z,7.28
2022-11-28T07:46:10.810Z,7.30
2022-11-28T07:48:39.034Z,7.25
2022-11-28T07:51:08.595Z,7.35
2022-11-28T07:53:36.635Z,6.78
2022-11-28T07:56:05.116Z,10.00
2022-11-28T07:58:35.416Z,8.20
2022-11-28T08:01:10.016Z,7.70
2022-11-28T08:03:37.897Z,9.10
2022-11-28T08:06:06.667Z,7.75
2022-11-28T08:08:34.901Z,8.13
2022-11-28T08:11:05.244Z,8.35
2022-11-28T08:13:35.269Z,8.50
2022-11-28T08:16:06.355Z,6.40
2022-11-28T08:18:34.907Z,7.88
2022-11-28T08:21:07.163Z,7.13
2022-11-28T08:23:35.962Z,6.72
2022-11-28T08:26:03.925Z,7.80
2022-11-28T08:28:31.948Z,7.60
2022-11-28T08:31:02.008Z,13.10
2022-11-28T08:33:29.815Z,8.68
2022-11-28T08:35:57.708Z,9.10
2022-11-28T08:38:25.550Z,10.50
2022-11-28T08:41:01.967Z,10.82
2022-11-28T08:43:29.747Z,9.90
2022-11-28T08:45:57.736Z,10.50
2022-11-28T08:48:27.135Z,9.60
2022-11-28T08:50:55.149Z,10.27
2022-11-28T08:53:22.921Z,8.85
2022-11-28T08:55:50.757Z,9.55
2022-11-28T08:58:18.542Z,9.73
2022-11-28T09:00:46.621Z,8.82
2022-11-28T09:03:16.238Z,9.82
2022-11-28T09:05:46.518Z,9.38
2022-11-28T09:08:15.314Z,8.13
2022-11-28T09:10:44.843Z,8.05
2022-11-28T09:13:13.829Z,8.77
2022-11-28T09:15:42.476Z,7.05
2022-11-28T09:18:11.168Z,8.05
2022-11-28T09:20:39.464Z,7.72
2022-11-28T09:23:09.854Z,6.35
2022-11-28T09:25:37.927Z,7.32
2022-11-28T09:28:06.408Z,7.47
2022-11-28T09:30:34.959Z,7.68
2022-11-28T09:33:02.947Z,7.80
2022-11-28T09:35:30.708Z,7.82
2022-11-28T09:37:59.065Z,7.80
2022-11-28T09:40:36.389Z,6.05
2022-11-28T09:43:07.991Z,7.80
2022-11-28T09:45:35.927Z,7.03
2022-11-28T09:48:17.024Z,8.15
2022-11-28T09:50:46.137Z,7.80
2022-11-28T09:53:21.184Z,8.45
2022-11-28T09:55:53.557Z,9.30
2022-11-28T09:58:29.218Z,8.85
2022-11-28T10:01:04.231Z,8.93
2022-11-28T10:03:41.343Z,8.98
2022-11-28T10:06:19.035Z,8.15
2022-11-28T10:09:08.927Z,8.18
2022-11-28T10:11:49.906Z,8.35
2022-11-28T10:14:51.699Z,9.98
2022-11-28T10:17:30.375Z,8.75
2022-11-28T10:20:04.081Z,8.85
2022-11-28T10:22:38.586Z,8.68
2022-11-28T10:25:15.344Z,8.88
2022-11-28T10:27:44.787Z,9.48
2022-11-28T10:30:21.865Z,9.05
2022-11-28T10:32:56.810Z,9.10
2022-11-28T10:35:31.126Z,8.57
2022-11-28T10:37:58.990Z,7.75
2022-11-28T10:40:40.777Z,8.77
2022-11-28T10:43:18.172Z,7.65
2022-11-28T10:45:52.756Z,8.80
2022-11-28T10:48:39.554Z,8.82
2022-11-28T10:51:17.520Z,8.25
2022-11-28T10:53:53.157Z,8.80
2022-11-28T10:56:32.941Z,8.90
2022-11-28T10:59:14.691Z,8.27
2022-11-28T11:01:45.986Z,8.32
2022-11-28T11:04:20.824Z,7.43
2022-11-28T11:07:09.951Z,8.35
2022-11-28T11:09:40.924Z,8.30
2022-11-28T11:12:17.960Z,8.48
2022-11-28T11:14:47.268Z,8.90
2022-11-28T11:17:30.139Z,8.70
2022-11-28T11:20:02.833Z,8.55
2022-11-28T11:22:32.056Z,8.57
2022-11-28T11:25:11.499Z,8.35
2022-11-28T11:27:47.478Z,8.32
2022-11-28T11:30:27.360Z,8.25
2022-11-28T11:32:56.378Z,8.77
2022-11-28T11:35:26.977Z,9.30
2022-11-28T11:38:14.775Z,9.55
2022-11-28T11:40:42.548Z,9.52
2022-11-28T11:43:26.040Z,9.93
2022-11-28T11:46:09.819Z,10.15
2022-11-28T11:48:40.538Z,11.07
2022-11-28T11:51:21.624Z,9.23
2022-11-28T11:53:49.437Z,9.82
2022-11-28T11:56:17.419Z,9.20
2022-11-28T11:58:50.889Z,9.13
2022-11-28T12:01:22.666Z,8.60
2022-11-28T12:03:56.261Z,9.35
2022-11-28T12:06:29.017Z,9.05
2022-11-28T12:09:09.270Z,8.70
2022-11-28T12:11:46.514Z,9.18
2022-11-28T12:14:28.004Z,9.25
2022-11-28T12:17:40.609Z,9.80
2022-11-28T12:20:10.927Z,8.10
2022-11-28T12:22:50.387Z,8.73
2022-11-28T12:25:27.470Z,8.93
2022-11-28T12:28:05.491Z,8.70
2022-11-28T12:30:48.368Z,9.00
2022-11-28T12:33:36.007Z,9.15
2022-11-28T12:36:15.774Z,10.65
2022-11-28T12:39:04.220Z,10.18
2022-11-28T12:42:05.523Z,8.60
2022-11-28T12:44:46.909Z,9.32
2022-11-28T12:47:23.123Z,8.77
2022-11-28T12:50:02.129Z,8.77
2022-11-28T12:52:39.450Z,8.82
2022-11-28T12:55:21.521Z,9.20
2022-11-28T12:57:57.041Z,8.73
2022-11-28T13:00:27.633Z,7.80
2022-11-28T13:03:06.857Z,9.40
2022-11-28T13:05:49.486Z,8.68
2022-11-28T13:08:44.740Z,9.57
2022-11-28T13:11:30.014Z,9.27
2022-11-28T13:14:06.204Z,10.15
2022-11-28T13:16:42.812Z,12.25
2022-11-28T13:19:18.369Z,12.15
2022-11-28T13:21:53.983Z,11.38
2022-11-28T13:24:28.140Z,13.00
2022-11-28T13:27:03.425Z,11.80
2022-11-28T13:29:41.219Z,11.75
2022-11-28T13:32:16.823Z,13.77
2022-11-28T13:34:45.647Z,13.30
2022-11-28T13:40:18.674Z,8.98
2022-11-28T13:43:03.922Z,8.73
2022-11-28T13:45:36.755Z,8.32
2022-11-28T13:51:31.710Z,8.82
2022-11-28T13:54:46.167Z,9.55
2022-11-28T13:57:31.373Z,8.65
2022-11-28T14:00:03.990Z,9.70
2022-11-28T14:02:45.851Z,8.73
2022-11-28T14:05:27.936Z,10.05
2022-11-28T14:07:57.217Z,10.07
2022-11-28T14:10:35.467Z,9.85
2022-11-28T14:13:44.676Z,9.32
2022-11-28T14:16:23.075Z,9.25
2022-11-28T14:19:06.696Z,8.30
2022-11-28T14:21:50.752Z,8.43
2022-11-28T14:24:28.262Z,9.32
2022-11-28T14:27:00.536Z,9.02
2022-11-28T14:29:36.829Z,9.10
2022-11-28T14:32:28.887Z,9.50
2022-11-28T14:34:55.880Z,9.27
2022-11-28T14:37:58.816Z,9.52
2022-11-28T14:41:06.673Z,9.15
2022-11-28T14:43:37.580Z,8.98
2022-11-28T14:46:29.058Z,9.20
2022-11-28T14:49:31.278Z,10.20
2022-11-28T14:52:37.286Z,9.68
2022-11-28T14:55:00.244Z,8.88
2022-11-28T14:57:32.563Z,9.05
2022-11-28T15:00:07.821Z,9.65
2022-11-28T15:02:59.338Z,9.80
2022-11-28T15:05:37.088Z,9.43
2022-11-28T15:08:45.410Z,9.60
2022-11-28T15:11:26.465Z,9.43
2022-11-28T15:14:05.902Z,9.35
2022-11-28T15:16:35.903Z,10.68
2022-11-28T15:19:07.457Z,10.10
2022-11-28T15:21:44.827Z,10.05
2022-11-28T15:24:24.401Z,10.15
2022-11-28T15:26:57.207Z,10.23
2022-11-28T15:29:28.021Z,9.90
2022-11-28T15:31:58.933Z,9.95
2022-11-28T15:34:30.618Z,13.07
2022-11-28T15:37:00.781Z,14.40
2022-11-28T15:39:34.858Z,12.40
2022-11-28T15:42:05.820Z,14.53
2022-11-28T15:44:34.017Z,15.02
2022-11-28T15:47:02.554Z,11.70
2022-11-28T15:49:33.845Z,14.75
2022-11-28T15:52:04.073Z,13.35
2022-11-28T15:54:38.106Z,12.18
2022-11-28T15:57:07.120Z,12.10
2022-11-28T15:59:35.219Z,9.30
2022-11-28T16:02:16.291Z,9.38
2022-11-28T16:04:47.179Z,9.30
2022-11-28T16:07:16.798Z,9.25
2022-11-28T16:09:55.656Z,9.05
2022-11-28T16:12:23.865Z,8.45
2022-11-28T16:14:53.384Z,8.98
2022-11-28T16:17:24.633Z,10.02
2022-11-28T16:19:55.356Z,12.32
2022-11-28T16:22:25.275Z,11.88
2022-11-28T16:24:55.319Z,11.20
2022-11-28T16:27:30.742Z,11.00
2022-11-28T16:29:58.780Z,9.43
2022-11-28T16:32:36.660Z,13.00
2022-11-28T16:35:08.459Z,13.57
2022-11-28T16:37:36.386Z,17.25
2022-11-28T16:40:07.792Z,14.60
2022-11-28T16:42:36.540Z,17.35
2022-11-28T16:45:12.733Z,17.23
2022-11-28T16:47:40.623Z,15.30
2022-11-28T16:50:23.167Z,13.60
2022-11-28T16:52:53.243Z,17.40
2022-11-28T16:55:44.207Z,13.27
2022-11-28T16:58:15.764Z,11.93
2022-11-28T17:00:47.685Z,12.63
2022-11-28T17:03:50.092Z,14.07
2022-11-28T17:06:25.214Z,17.27
2022-11-28T17:08:52.963Z,15.35
2022-11-28T17:11:23.587Z,13.05
2022-11-28T17:13:51.907Z,16.17
2022-11-28T17:16:22.753Z,18.38
2022-11-28T17:18:51.324Z,18.23
2022-11-28T17:21:32.202Z,16.83
2022-11-28T17:24:00.734Z,15.07
2022-11-28T17:26:28.645Z,12.70
2022-11-28T17:28:56.494Z,18.10
2022-11-28T17:31:24.655Z,16.77
2022-11-28T17:33:52.488Z,16.73
2022-11-28T17:36:20.249Z,23.88
2022-11-28T17:38:49.370Z,25.05
2022-11-28T17:41:17.110Z,17.38
2022-11-28T17:43:44.866Z,16.83
2022-11-28T17:46:12.689Z,14.60
2022-11-28T17:48:40.535Z,15.20
2022-11-28T17:51:08.330Z,16.67
2022-11-28T17:53:37.623Z,19.90
2022-11-28T17:56:07.861Z,17.08
2022-11-28T17:58:35.583Z,11.88
2022-11-28T18:01:03.912Z,13.23
2022-11-28T18:03:31.719Z,14.90
2022-11-28T18:05:59.493Z,18.42
2022-11-28T18:08:27.356Z,20.38
2022-11-28T18:11:03.631Z,18.08
2022-11-28T18:13:33.460Z,13.13
2022-11-28T18:16:01.511Z,13.43
2022-11-28T18:18:29.857Z,12.07
2022-11-28T18:20:57.655Z,14.45
2022-11-28T18:23:25.519Z,14.40
2022-11-28T18:25:53.367Z,18.73
2022-11-28T18:28:22.017Z,15.10
2022-11-28T18:30:51.296Z,14.60
2022-11-28T18:33:19.083Z,15.52
2022-11-28T18:35:46.919Z,14.15
2022-11-28T18:38:14.729Z,13.15
2022-11-28T18:40:42.485Z,12.32
2022-11-28T18:43:10.501Z,12.15
2022-11-28T18:45:38.576Z,12.80
2022-11-28T18:48:07.819Z,17.23
2022-11-28T18:50:36.060Z,17.45
2022-11-28T18:53:03.869Z,14.77
2022-11-28T18:55:31.672Z,12.40
2022-11-28T18:57:59.826Z,11.45
2022-11-28T19:00:27.630Z,12.48
2022-11-28T19:02:55.707Z,12.93
2022-11-28T19:05:25.413Z,11.75
2022-11-28T19:07:53.470Z,11.80
2022-11-28T19:10:21.610Z,15.23
2022-11-28T19:12:49.504Z,13.93
2022-11-28T19:15:17.366Z,12.25
2022-11-28T19:17:45.237Z,14.38
2022-11-28T19:20:14.538Z,14.55
2022-11-28T19:22:43.790Z,19.40
2022-11-28T19:25:11.647Z,18.70
2022-11-28T19:27:40.056Z,18.75
2022-11-28T19:30:09.156Z,17.38
2022-11-28T19:32:37.287Z,16.30
2022-11-28T19:35:05.448Z,15.38
2022-11-28T19:37:33.788Z,17.88
2022-11-28T19:40:03.671Z,19.08
2022-11-28T19:42:31.585Z,20.20
2022-11-28T19:44:59.442Z,16.45
2022-11-28T19:47:28.031Z,18.35
2022-11-28T19:49:55.910Z,22.60
2022-11-28T19:52:23.649Z,14.77
2022-11-28T19:54:51.583Z,12.90
2022-11-28T19:57:20.845Z,11.93
2022-11-28T19:59:48.966Z,13.02
2022-11-28T20:02:21.518Z,17.88
2022-11-28T20:04:49.300Z,15.15
2022-11-28T20:07:17.156Z,15.73
2022-11-28T20:09:45.163Z,13.20
2022-11-28T20:12:13.902Z,16.35
2022-11-28T20:14:43.500Z,19.02
2022-11-28T20:17:12.245Z,16.55
2022-11-28T20:19:40.068Z,15.00
2022-11-28T20:22:08.009Z,13.80
2022-11-28T20:24:36.200Z,16.13
2022-11-28T20:27:04.349Z,16.33
2022-11-28T20:29:33.229Z,14.75
2022-11-28T20:32:02.694Z,25.52
2022-11-28T20:34:31.046Z,17.48
2022-11-28T20:37:00.395Z,17.13
2022-11-28T20:39:28.160Z,15.60
2022-11-28T20:41:55.966Z,15.10
2022-11-28T20:44:23.946Z,13.93
2022-11-28T20:46:51.791Z,14.05
2022-11-28T20:49:21.209Z,15.15
2022-11-28T20:51:50.281Z,15.38
2022-11-28T20:54:19.017Z,14.60
2022-11-28T20:57:19.190Z,14.65
2022-11-28T20:59:35.626Z,15.75
2022-11-28T21:02:03.532Z,14.40
2022-11-28T21:04:32.765Z,14.27
2022-11-28T21:07:00.577Z,15.23
2022-11-28T21:09:28.414Z,15.10
2022-11-28T21:11:59.193Z,16.50
2022-11-28T21:14:28.394Z,16.65
2022-11-28T21:16:56.455Z,16.30
2022-11-28T21:19:24.897Z,16.45
2022-11-28T21:21:54.340Z,16.48
2022-11-28T21:24:22.320Z,17.65
2022-11-28T21:26:54.141Z,15.40
2022-11-28T21:29:23.423Z,16.35
2022-11-28T21:31:51.434Z,15.90
2022-11-28T21:34:19.730Z,15.98
2022-11-28T21:36:47.972Z,70.15
2022-11-28T21:39:20.135Z,58.33
2022-11-28T21:41:48.781Z,25.05
2022-11-28T21:44:16.749Z,19.40
2022-11-28T21:46:44.569Z,23.08
2022-11-28T21:49:13.893Z,19.38
2022-11-28T21:51:41.971Z,21.23
2022-11-28T21:54:10.836Z,17.95
2022-11-28T21:56:40.220Z,17.25
2022-11-28T21:59:08.396Z,17.10
2022-11-28T22:01:36.305Z,15.63
2022-11-28T22:04:05.171Z,17.30
2022-11-28T22:06:33.906Z,15.27
2022-11-28T22:09:08.787Z,15.27
2022-11-28T22:11:40.109Z,15.52
2022-11-28T22:14:08.187Z,15.48
2022-11-28T22:16:36.665Z,14.85
2022-11-28T22:19:06.090Z,15.63
2022-11-28T22:21:54.166Z,15.20
2022-11-28T22:24:24.063Z,15.10
2022-11-28T22:26:53.655Z,15.45
2022-11-28T22:29:21.525Z,15.98
2022-11-28T22:31:50.153Z,15.90
2022-11-28T22:34:19.388Z,16.02
2022-11-28T22:36:47.304Z,16.48
2022-11-28T22:39:15.314Z,17.50
2022-11-28T22:41:43.781Z,19.15
2022-11-28T22:44:13.070Z,17.48
2022-11-28T22:46:40.848Z,17.13
2022-11-28T22:49:11.650Z,16.75
2022-11-28T22:51:40.192Z,16.10
2022-11-28T22:54:08.416Z,15.43
2022-11-28T22:56:36.211Z,15.25
2022-11-28T22:59:04.877Z,15.15
2022-11-28T23:01:35.212Z,15.77
2022-11-28T23:04:03.001Z,16.30
2022-11-28T23:06:34.273Z,14.85
2022-11-28T23:09:05.787Z,15.90
2022-11-28T23:11:36.069Z,15.98
2022-11-28T23:14:05.326Z,14.85
2022-11-28T23:16:38.892Z,15.50
2022-11-28T23:19:10.817Z,14.65
2022-11-28T23:21:40.758Z,15.75
2022-11-28T23:24:13.118Z,14.85
2022-11-28T23:26:40.871Z,14.52
2022-11-28T23:29:08.623Z,15.45
2022-11-28T23:31:40.672Z,15.18
2022-11-28T23:34:10.080Z,14.70
2022-11-28T23:36:42.670Z,14.18
2022-11-28T23:39:14.061Z,13.90
2022-11-28T23:41:42.582Z,13.43
2022-11-28T23:44:11.879Z,14.75
2022-11-28T23:46:41.802Z,14.77
2022-11-28T23:49:10.313Z,15.63
2022-11-28T23:51:40.012Z,15.50
2022-11-28T23:54:08.357Z,15.55
2022-11-28T23:56:38.342Z,14.88
2022-11-28T23:59:08.969Z,14.57
